createdAt,value
2019-04-16T00:01:47.411Z,14.2
2019-04-16T00:03:48.821Z,13.9
2019-04-16T00:05:50.238Z,13.8
2019-04-16T00:07:51.687Z,13.2
2019-04-16T00:09:53.026Z,14.3
2019-04-16T00:11:54.421Z,14.5
2019-04-16T00:13:55.841Z,14.7
2019-04-16T00:15:57.260Z,13.3
2019-04-16T00:17:58.631Z,15.5
2019-04-16T00:20:00.201Z,14.4
2019-04-16T00:22:01.648Z,14.2
2019-04-16T00:24:02.980Z,13.8
2019-04-16T00:26:04.376Z,13.9
2019-04-16T00:28:05.801Z,14.2
2019-04-16T00:30:07.237Z,14.9
2019-04-16T00:32:09.815Z,14.4
2019-04-16T00:34:14.502Z,14.1
2019-04-16T00:36:18.789Z,14.8
2019-04-16T00:38:23.347Z,14.1
2019-04-16T00:40:27.293Z,14
2019-04-16T00:42:28.771Z,14.9
2019-04-16T00:44:30.176Z,15.2
2019-04-16T00:46:31.539Z,14.2
2019-04-16T00:48:32.955Z,14.8
2019-04-16T00:50:34.298Z,14.4
2019-04-16T00:52:37.683Z,14.2
2019-04-16T00:54:42.334Z,14.6
2019-04-16T00:56:47.572Z,14.2
2019-04-16T00:58:52.945Z,14.9
2019-04-16T01:00:54.419Z,15
2019-04-16T01:02:55.840Z,14.6
2019-04-16T01:04:57.264Z,13.8
2019-04-16T01:06:58.598Z,14.1
2019-04-16T01:09:00.024Z,14.4
2019-04-16T01:11:01.353Z,13.5
2019-04-16T01:13:02.905Z,13.9
2019-04-16T01:15:04.293Z,14.8
2019-04-16T01:17:05.891Z,14.2
2019-04-16T01:19:11.114Z,15.2
2019-04-16T01:21:14.937Z,14.6
2019-04-16T01:23:18.498Z,15.2
2019-04-16T01:25:23.360Z,14.8
2019-04-16T01:27:29.307Z,14.8
2019-04-16T01:29:34.546Z,14.8
2019-04-16T01:31:39.230Z,14.9
2019-04-16T01:33:40.673Z,14.3
2019-04-16T01:35:42.009Z,15.4
2019-04-16T01:37:43.435Z,14.9
2019-04-16T01:39:48.261Z,15.8
2019-04-16T01:41:53.308Z,14.6
2019-04-16T01:43:57.884Z,15.1
2019-04-16T01:46:02.412Z,15.7
2019-04-16T01:48:08.233Z,15
2019-04-16T01:50:14.025Z,15.2
2019-04-16T01:52:19.621Z,15
2019-04-16T01:54:23.507Z,14.8
2019-04-16T01:56:28.933Z,15.5
2019-04-16T01:58:34.545Z,15
2019-04-16T02:00:39.285Z,14.8
2019-04-16T02:02:46.824Z,15.6
2019-04-16T02:04:52.719Z,14.7
2019-04-16T02:06:57.742Z,15.4
2019-04-16T02:09:03.209Z,15.6
2019-04-16T02:11:09.900Z,15.1
2019-04-16T02:13:15.854Z,15.2
2019-04-16T02:15:22.445Z,16.3
2019-04-16T02:17:27.677Z,15.4
2019-04-16T02:19:33.529Z,15.5
2019-04-16T02:21:34.905Z,16.6
2019-04-16T02:23:36.327Z,16.2
2019-04-16T02:25:37.743Z,15.7
2019-04-16T02:27:39.069Z,15.8
2019-04-16T02:29:40.419Z,16.2
2019-04-16T02:31:41.811Z,15.4
2019-04-16T02:33:43.237Z,16.4
2019-04-16T02:35:44.585Z,16
2019-04-16T02:37:45.975Z,16.6
2019-04-16T02:39:49.524Z,15.8
2019-04-16T02:41:58.295Z,15.8
2019-04-16T02:43:59.835Z,16.4
2019-04-16T02:46:01.261Z,16.3
2019-04-16T02:48:02.917Z,15.6
2019-04-16T02:50:04.292Z,13.2
2019-04-16T02:52:05.708Z,16.3
2019-04-16T02:54:07.458Z,15.4
2019-04-16T02:56:08.761Z,16.2
2019-04-16T02:58:10.172Z,16.6
2019-04-16T03:00:11.493Z,15.7
2019-04-16T03:02:12.977Z,15.2
2019-04-16T03:04:14.336Z,15.7
2019-04-16T03:06:15.756Z,15.4
2019-04-16T03:08:17.137Z,14.4
2019-04-16T03:10:18.503Z,15.3
2019-04-16T03:12:21.685Z,15.3
2019-04-16T03:14:23.051Z,15.4
2019-04-16T03:16:24.466Z,15.4
2019-04-16T03:18:25.805Z,15.3
2019-04-16T03:20:27.224Z,15.4
2019-04-16T03:22:33.370Z,15.6
2019-04-16T03:24:40.082Z,15.9
2019-04-16T03:26:44.430Z,15.2
2019-04-16T03:28:45.834Z,15.3
2019-04-16T03:30:47.193Z,16
2019-04-16T03:32:48.595Z,15.3
2019-04-16T03:34:53.414Z,16.1
2019-04-16T03:36:55.443Z,15
2019-04-16T03:38:56.858Z,15.3
2019-04-16T03:40:58.272Z,16
2019-04-16T03:43:04.093Z,15.8
2019-04-16T03:45:10.243Z,15.4
2019-04-16T03:47:11.660Z,15.9
2019-04-16T03:49:13.006Z,15.8
2019-04-16T03:51:14.415Z,15.4
2019-04-16T03:53:18.244Z,16.2
2019-04-16T03:55:26.373Z,15.7
2019-04-16T03:57:33.759Z,15.5
2019-04-16T03:59:35.220Z,16.8
2019-04-16T04:01:36.646Z,15.2
2019-04-16T04:03:38.007Z,16.4
2019-04-16T04:05:39.347Z,15.6
2019-04-16T04:07:45.016Z,16.6
2019-04-16T04:09:46.537Z,16.4
2019-04-16T04:11:47.926Z,15.7
2019-04-16T04:13:50.925Z,16.1
2019-04-16T04:15:55.345Z,14.3
2019-04-16T04:17:56.729Z,15.1
2019-04-16T04:19:58.157Z,16.6
2019-04-16T04:21:59.525Z,15.7
2019-04-16T04:24:01.077Z,16.2
2019-04-16T04:26:02.457Z,15.3
2019-04-16T04:28:03.882Z,14.6
2019-04-16T04:30:05.297Z,15
2019-04-16T04:32:07.001Z,14.8
2019-04-16T04:34:11.559Z,14.8
2019-04-16T04:36:20.206Z,15.7
2019-04-16T04:38:24.055Z,15.2
2019-04-16T04:40:25.489Z,15.6
2019-04-16T04:42:29.033Z,15.9
2019-04-16T04:44:30.403Z,14.9
2019-04-16T04:46:31.867Z,14.9
2019-04-16T04:48:33.230Z,15.1
2019-04-16T04:50:36.064Z,15.6
2019-04-16T04:52:37.466Z,15
2019-04-16T04:54:38.880Z,15.9
2019-04-16T04:56:40.231Z,14.9
2019-04-16T04:58:41.538Z,15.2
2019-04-16T05:00:42.969Z,16.2
2019-04-16T05:02:44.549Z,15
2019-04-16T05:04:45.835Z,13.7
2019-04-16T05:06:47.255Z,14.5
2019-04-16T05:08:48.695Z,14.3
2019-04-16T05:11:02.620Z,14.3
2019-04-16T05:13:04.121Z,14.8
2019-04-16T05:15:05.557Z,13.6
2019-04-16T05:17:07.671Z,14.2
2019-04-16T05:19:15.418Z,14.1
2019-04-16T05:21:19.536Z,14.2
2019-04-16T05:23:26.062Z,13.8
2019-04-16T05:25:27.580Z,13.5
2019-04-16T05:27:32.477Z,15.4
2019-04-16T05:29:33.883Z,15.6
2019-04-16T05:31:35.303Z,15.8
2019-04-16T05:33:38.181Z,12.8
2019-04-16T05:35:42.429Z,14.2
2019-04-16T05:37:43.821Z,15.6
2019-04-16T05:39:45.229Z,15.5
2019-04-16T05:41:46.650Z,15.7
2019-04-16T05:43:48.072Z,14.9
2019-04-16T05:45:49.480Z,14.7
2019-04-16T05:47:50.804Z,13
2019-04-16T05:49:58.609Z,15.7
2019-04-16T05:52:03.974Z,13.5
2019-04-16T05:54:05.452Z,14.5
2019-04-16T05:56:06.821Z,12.8
2019-04-16T05:58:08.204Z,14.6
2019-04-16T06:00:10.605Z,14.6
2019-04-16T06:02:18.361Z,15
2019-04-16T06:04:25.545Z,15.5
2019-04-16T06:06:32.265Z,13.2
2019-04-16T06:08:33.739Z,14
2019-04-16T06:10:35.161Z,14.7
2019-04-16T06:12:40.654Z,17.4
2019-04-16T06:14:42.111Z,18.1
2019-04-16T06:16:43.539Z,13.3
2019-04-16T06:18:44.967Z,15.8
2019-04-16T06:20:46.395Z,16.9
2019-04-16T06:22:47.726Z,18.1
2019-04-16T06:24:49.152Z,13.6
2019-04-16T06:26:50.573Z,18.7
2019-04-16T06:28:56.436Z,18.1
2019-04-16T06:31:07.055Z,18.8
2019-04-16T06:33:11.266Z,19.2
2019-04-16T06:35:12.686Z,19.2
2019-04-16T06:37:14.209Z,16.1
2019-04-16T06:39:15.454Z,17.6
2019-04-16T06:41:16.799Z,19.1
2019-04-16T06:43:18.390Z,17.6
2019-04-16T06:45:19.752Z,18.6
2019-04-16T06:47:21.178Z,17.9
2019-04-16T06:49:22.591Z,15.2
2019-04-16T06:51:24.140Z,15.6
2019-04-16T06:53:25.493Z,18.6
2019-04-16T06:55:26.921Z,20
2019-04-16T06:57:28.317Z,14.8
2019-04-16T06:59:30.970Z,15.8
2019-04-16T07:01:40.025Z,19
2019-04-16T07:03:42.807Z,19.1
2019-04-16T07:05:44.246Z,16.8
2019-04-16T07:07:47.067Z,19.6
2019-04-16T07:09:48.421Z,19.6
2019-04-16T07:11:54.976Z,20.3
2019-04-16T07:13:56.451Z,17.8
2019-04-16T07:15:58.017Z,18.1
2019-04-16T07:17:59.446Z,19.3
2019-04-16T07:20:04.913Z,18.6
2019-04-16T07:22:06.402Z,17.2
2019-04-16T07:24:08.237Z,16.7
2019-04-16T07:26:14.858Z,15.9
2019-04-16T07:28:16.661Z,16.8
2019-04-16T07:34:21.414Z,16.6
2019-04-16T07:36:27.090Z,15.7
2019-04-16T07:38:29.145Z,15.4
2019-04-16T07:40:30.581Z,16.2
2019-04-16T07:42:32.002Z,16.7
2019-04-16T07:44:33.454Z,18.5
2019-04-16T07:46:34.774Z,16.5
2019-04-16T07:48:36.149Z,18.3
2019-04-16T07:50:37.585Z,16.9
2019-04-16T07:52:42.673Z,15.6
2019-04-16T07:54:44.067Z,17.5
2019-04-16T07:56:45.398Z,18
2019-04-16T07:58:46.743Z,17.4
2019-04-16T08:00:48.082Z,14.1
2019-04-16T08:02:53.622Z,14.8
2019-04-16T08:04:55.943Z,14.7
2019-04-16T08:06:57.370Z,16.6
2019-04-16T08:08:58.801Z,15.2
2019-04-16T08:11:00.231Z,16.9
2019-04-16T08:13:01.938Z,13.7
2019-04-16T08:15:15.197Z,15
2019-04-16T08:17:16.757Z,15.2
2019-04-16T08:19:18.189Z,16
2019-04-16T08:21:23.039Z,18.3
2019-04-16T08:23:24.384Z,14.4
2019-04-16T08:25:25.807Z,14.2
2019-04-16T08:27:27.206Z,15.8
2019-04-16T08:29:28.635Z,13.6
2019-04-16T08:31:30.015Z,16.1
2019-04-16T08:33:31.446Z,12.9
2019-04-16T08:35:32.779Z,12.5
2019-04-16T08:37:49.001Z,15.1
2019-04-16T08:39:50.670Z,13.9
2019-04-16T08:41:53.126Z,13.7
2019-04-16T08:43:54.546Z,14.6
2019-04-16T08:45:55.986Z,13
2019-04-16T08:47:57.417Z,13.9
2019-04-16T08:49:58.852Z,13.6
2019-04-16T08:52:00.550Z,14.3
2019-04-16T08:54:01.886Z,14.2
2019-04-16T08:56:03.226Z,14.9
2019-04-16T08:58:07.484Z,15
2019-04-16T09:00:15.400Z,14.9
2019-04-16T09:02:16.924Z,17.2
2019-04-16T09:04:18.539Z,17
2019-04-16T09:06:19.908Z,15.7
2019-04-16T09:08:22.782Z,14.4
2019-04-16T09:10:29.589Z,14.7
2019-04-16T09:12:31.648Z,14.6
2019-04-16T09:14:32.993Z,17.3
2019-04-16T09:16:34.426Z,14
2019-04-16T09:18:35.718Z,15.8
2019-04-16T09:20:38.592Z,16.9
2019-04-16T09:22:49.722Z,13.8
2019-04-16T09:24:54.172Z,14.3
2019-04-16T09:26:56.499Z,15.2
2019-04-16T09:29:08.086Z,13.1
2019-04-16T09:31:10.849Z,15.3
2019-04-16T09:33:12.120Z,15.3
2019-04-16T09:35:20.231Z,14.8
2019-04-16T09:37:21.798Z,14.6
2019-04-16T09:39:23.115Z,17.2
2019-04-16T09:41:24.547Z,14.8
2019-04-16T09:43:25.989Z,17.7
2019-04-16T09:45:27.439Z,14.9
2019-04-16T09:47:33.383Z,14.2
2019-04-16T09:49:38.378Z,15.1
2019-04-16T09:51:39.883Z,15.9
2019-04-16T09:53:41.297Z,14.9
2019-04-16T09:55:42.736Z,15.7
2019-04-16T09:57:44.206Z,15.7
2019-04-16T09:59:48.431Z,15.5
2019-04-16T10:01:49.850Z,18.3
2019-04-16T10:03:53.892Z,16.4
2019-04-16T10:05:55.346Z,16.9
2019-04-16T10:07:57.170Z,17.2
2019-04-16T10:09:58.605Z,15.3
2019-04-16T10:12:00.067Z,17.6
2019-04-16T10:14:01.510Z,16.2
2019-04-16T10:16:02.963Z,16.3
2019-04-16T10:18:04.314Z,11.7
2019-04-16T10:20:05.711Z,15.8
2019-04-16T10:22:07.147Z,16.5
2019-04-16T10:24:08.591Z,15
2019-04-16T10:26:10.008Z,17.1
2019-04-16T10:28:11.451Z,17.1
2019-04-16T10:30:12.884Z,14.8
2019-04-16T10:32:18.608Z,15.1
2019-04-16T10:34:20.050Z,15.8
2019-04-16T10:36:21.392Z,16.9
2019-04-16T10:38:22.859Z,18
2019-04-16T10:40:24.483Z,12.6
2019-04-16T10:42:25.969Z,17.5
2019-04-16T10:44:27.385Z,16.6
2019-04-16T10:46:28.823Z,11.7
2019-04-16T10:48:30.273Z,6.8
2019-04-16T10:50:31.670Z,13.5
2019-04-16T10:52:33.097Z,16.1
2019-04-16T10:54:38.246Z,14.1
2019-04-16T10:56:39.694Z,14.9
2019-04-16T10:58:41.128Z,17.5
2019-04-16T11:00:42.550Z,15.8
2019-04-16T11:02:43.988Z,16.3
2019-04-16T11:04:45.468Z,9.6
2019-04-16T11:06:46.907Z,17.1
2019-04-16T11:08:48.321Z,17.4
2019-04-16T11:10:49.663Z,12
2019-04-16T11:12:51.147Z,18.1
2019-04-16T11:14:52.603Z,17.3
2019-04-16T11:16:53.993Z,15.5
2019-04-16T11:18:55.525Z,18.1
2019-04-16T11:20:56.935Z,14.4
2019-04-16T11:22:58.400Z,16.5
2019-04-16T11:24:59.879Z,15.7
2019-04-16T11:27:01.239Z,15.9
2019-04-16T11:29:02.940Z,16.2
2019-04-16T11:31:04.326Z,15.5
2019-04-16T11:33:05.801Z,15.3
2019-04-16T11:35:07.246Z,16
2019-04-16T11:37:09.921Z,14.8
2019-04-16T11:39:11.340Z,14.4
2019-04-16T11:41:12.701Z,11.7
2019-04-16T11:43:14.102Z,12.1
2019-04-16T11:45:15.519Z,13.6
2019-04-16T11:47:16.964Z,13.7
2019-04-16T11:49:18.490Z,12
2019-04-16T11:51:19.830Z,11.1
2019-04-16T11:53:21.295Z,12.1
2019-04-16T11:55:22.746Z,10.7
2019-04-16T11:57:24.179Z,13.4
2019-04-16T11:59:25.622Z,12.1
2019-04-16T12:01:26.980Z,12.3
2019-04-16T12:03:28.526Z,11.5
2019-04-16T12:05:29.939Z,12.9
2019-04-16T12:07:31.299Z,12.9
2019-04-16T12:09:32.688Z,12.5
2019-04-16T12:11:34.156Z,12.2
2019-04-16T12:13:35.616Z,13.1
2019-04-16T12:15:37.141Z,11.4
2019-04-16T12:17:38.633Z,12
2019-04-16T12:19:40.042Z,10.7
2019-04-16T12:21:41.478Z,8.7
2019-04-16T12:23:42.977Z,9.7
2019-04-16T12:25:44.415Z,11.1
2019-04-16T12:27:45.865Z,11.7
2019-04-16T12:29:47.282Z,5.5
2019-04-16T12:31:48.741Z,10
2019-04-16T12:33:50.181Z,9.1
2019-04-16T12:35:51.653Z,10.8
2019-04-16T12:37:53.048Z,12
2019-04-16T12:39:54.613Z,11.8
2019-04-16T12:41:59.991Z,11.6
2019-04-16T12:44:01.697Z,10.6
2019-04-16T12:46:03.214Z,12.7
2019-04-16T12:48:04.695Z,12.4
2019-04-16T12:50:06.180Z,12.3
2019-04-16T12:52:07.692Z,11.8
2019-04-16T12:54:09.138Z,11.9
2019-04-16T12:56:10.580Z,13.5
2019-04-16T12:58:11.967Z,9.5
2019-04-16T13:00:13.390Z,10.6
2019-04-16T13:02:14.749Z,11.2
2019-04-16T13:04:16.295Z,10.9
2019-04-16T13:06:17.751Z,13.3
2019-04-16T13:08:19.197Z,11.7
2019-04-16T13:10:20.647Z,11.6
2019-04-16T13:12:22.102Z,9.3
2019-04-16T13:14:23.517Z,12.6
2019-04-16T13:16:24.917Z,11.5
2019-04-16T13:18:26.272Z,12.4
2019-04-16T13:20:30.201Z,13.1
2019-04-16T13:22:31.660Z,11.8
2019-04-16T13:24:33.109Z,11.1
2019-04-16T13:26:34.559Z,11.9
2019-04-16T13:28:35.936Z,12.2
2019-04-16T13:30:37.340Z,12.1
2019-04-16T13:32:38.731Z,11.8
2019-04-16T13:34:40.180Z,12.8
2019-04-16T13:36:41.635Z,12.5
2019-04-16T13:38:43.065Z,11.6
2019-04-16T13:40:44.356Z,11.6
2019-04-16T13:42:45.813Z,10.7
2019-04-16T13:44:47.253Z,12.2
2019-04-16T13:46:48.699Z,11.8
2019-04-16T13:48:50.099Z,11.3
2019-04-16T13:50:51.546Z,10
2019-04-16T13:52:55.963Z,11.6
2019-04-16T13:54:57.456Z,11
2019-04-16T13:56:58.861Z,12.4
2019-04-16T13:59:00.728Z,12.5
2019-04-16T14:01:02.282Z,12.9
2019-04-16T14:03:03.652Z,12.6
2019-04-16T14:05:05.797Z,12.2
2019-04-16T14:07:07.253Z,11.7
2019-04-16T14:09:08.711Z,13.1
2019-04-16T14:11:10.081Z,13.5
2019-04-16T14:13:14.121Z,13.2
2019-04-16T14:15:32.503Z,12.4
2019-04-16T14:17:51.307Z,13.1
2019-04-16T14:19:53.192Z,13.8
2019-04-16T14:21:54.625Z,13.4
2019-04-16T14:23:55.996Z,13.5
2019-04-16T14:25:57.447Z,13.4
2019-04-16T14:28:03.592Z,10.7
2019-04-16T14:30:11.207Z,13.1
2019-04-16T14:32:12.830Z,12
2019-04-16T14:34:14.214Z,12.3
2019-04-16T14:36:15.570Z,12.6
2019-04-16T14:38:17.024Z,11.8
2019-04-16T14:40:18.485Z,12.4
2019-04-16T14:42:23.138Z,13.3
2019-04-16T14:44:24.583Z,12.5
2019-04-16T14:46:29.172Z,11.7
2019-04-16T14:48:30.571Z,12.3
2019-04-16T14:50:33.389Z,11.9
2019-04-16T14:52:34.725Z,13.4
2019-04-16T14:54:36.088Z,12.8
2019-04-16T14:56:37.434Z,12.6
2019-04-16T14:58:38.798Z,12.2
2019-04-16T15:00:40.229Z,12.3
2019-04-16T15:02:41.660Z,12.4
2019-04-16T15:04:43.926Z,12.6
2019-04-16T15:06:54.215Z,12.4
2019-04-16T15:21:22.155Z,11.6
2019-04-16T15:23:23.560Z,11.1
2019-04-16T15:25:24.944Z,11.2
2019-04-16T15:27:31.565Z,14
2019-04-16T15:29:33.863Z,12.1
2019-04-16T15:31:35.295Z,11.8
2019-04-16T15:33:39.790Z,10.6
2019-04-16T15:35:46.553Z,11.4
2019-04-16T15:37:48.023Z,11.5
2019-04-16T15:39:49.477Z,11.5
2019-04-16T15:41:50.947Z,10.6
2019-04-16T15:43:52.393Z,11
2019-04-16T15:45:53.834Z,10.6
2019-04-16T15:47:55.284Z,10.4
2019-04-16T15:49:57.457Z,10.6
2019-04-16T15:51:58.896Z,10.4
2019-04-16T15:54:00.357Z,11.5
2019-04-16T15:56:01.818Z,10.8
2019-04-16T15:58:08.187Z,11.5
2019-04-16T16:00:10.827Z,11.8
2019-04-16T16:02:12.241Z,11.1
2019-04-16T16:04:13.640Z,11.4
2019-04-16T16:06:20.300Z,12.1
2019-04-16T16:08:22.063Z,10.9
2019-04-16T16:10:23.512Z,11.2
2019-04-16T16:12:24.887Z,12.3
2019-04-16T16:14:26.324Z,12
2019-04-16T16:16:42.161Z,11.5
2019-04-16T16:18:43.781Z,11
2019-04-16T16:20:45.233Z,11
2019-04-16T16:22:46.646Z,10.4
2019-04-16T16:24:48.011Z,10
2019-04-16T16:26:49.369Z,10.6
2019-04-16T16:28:50.840Z,10.5
2019-04-16T16:30:52.276Z,10.6
2019-04-16T16:32:53.716Z,10.7
2019-04-16T16:34:55.641Z,11
2019-04-16T16:36:56.951Z,10.4
2019-04-16T16:38:58.370Z,11.3
2019-04-16T16:40:59.718Z,10.8
2019-04-16T16:43:07.220Z,11.9
2019-04-16T16:45:09.337Z,10.7
2019-04-16T16:47:10.720Z,10
2019-04-16T16:49:12.185Z,10.2
2019-04-16T16:51:15.613Z,10.5
2019-04-16T16:53:17.074Z,9.5
2019-04-16T16:55:18.519Z,9.4
2019-04-16T16:57:19.799Z,11.1
2019-04-16T16:59:21.244Z,10.9
2019-04-16T17:01:22.605Z,11
2019-04-16T17:03:24.061Z,11
2019-04-16T17:05:25.508Z,9.4
2019-04-16T17:07:26.863Z,8.7
2019-04-16T17:09:31.177Z,10.4
2019-04-16T17:11:32.754Z,9.5
2019-04-16T17:13:34.196Z,10.5
2019-04-16T17:15:35.624Z,10.7
2019-04-16T17:17:37.008Z,9.6
2019-04-16T17:19:38.360Z,9.2
2019-04-16T17:21:39.727Z,10.1
2019-04-16T17:23:41.174Z,9.5
2019-04-16T17:25:42.636Z,9.3
2019-04-16T17:27:51.958Z,9.6
2019-04-16T17:29:53.831Z,9.1
2019-04-16T17:31:55.730Z,9.4
2019-04-16T17:33:57.043Z,9.4
2019-04-16T17:35:58.513Z,9.5
2019-04-16T17:38:03.795Z,9.2
2019-04-16T17:40:05.283Z,9.1
2019-04-16T17:42:06.689Z,9.1
2019-04-16T17:44:08.042Z,8.5
2019-04-16T17:46:09.495Z,8
2019-04-16T17:48:10.941Z,7.5
2019-04-16T17:50:12.393Z,7.9
2019-04-16T17:52:13.786Z,7.2
2019-04-16T17:54:15.140Z,7
2019-04-16T17:56:16.667Z,7.1
2019-04-16T17:58:18.117Z,7.2
2019-04-16T18:00:19.471Z,7.6
2019-04-16T18:02:20.893Z,7.2
2019-04-16T18:04:22.258Z,8.3
2019-04-16T18:06:23.715Z,7.7
2019-04-16T18:08:25.156Z,8.8
2019-04-16T18:10:27.139Z,9.8
2019-04-16T18:12:28.563Z,9.8
2019-04-16T18:14:29.928Z,11.3
2019-04-16T18:16:31.466Z,12.3
2019-04-16T18:18:36.799Z,11.1
2019-04-16T18:20:38.097Z,12.2
2019-04-16T18:22:45.054Z,14
2019-04-16T18:24:47.055Z,16.6
2019-04-16T18:26:48.514Z,15.8
2019-04-16T18:28:49.947Z,14.3
2019-04-16T18:30:51.391Z,15.2
2019-04-16T18:32:52.850Z,16.5
2019-04-16T18:34:54.275Z,12.5
2019-04-16T18:36:55.588Z,16.6
2019-04-16T18:39:05.309Z,13.5
2019-04-16T18:41:06.807Z,15.7
2019-04-16T18:43:08.265Z,17.3
2019-04-16T18:45:09.695Z,16.7
2019-04-16T18:47:11.326Z,14.2
2019-04-16T18:49:17.292Z,14.7
2019-04-16T18:51:18.836Z,13.4
2019-04-16T18:53:20.281Z,15
2019-04-16T18:55:21.533Z,12.4
2019-04-16T18:57:22.951Z,13.7
2019-04-16T18:59:24.396Z,12.2
2019-04-16T19:01:25.837Z,16.7
2019-04-16T19:03:27.289Z,15.4
2019-04-16T19:05:28.715Z,14.2
2019-04-16T19:07:30.142Z,13.3
2019-04-16T19:09:31.589Z,12.1
2019-04-16T19:11:32.991Z,11.6
2019-04-16T19:13:34.434Z,11.9
2019-04-16T19:15:35.875Z,10.8
2019-04-16T19:17:37.316Z,12.5
2019-04-16T19:19:44.288Z,13.2
2019-04-16T19:21:52.266Z,11.6
2019-04-16T19:23:53.757Z,12.3
2019-04-16T19:25:56.835Z,13.1
2019-04-16T19:27:58.667Z,13.4
2019-04-16T19:30:00.068Z,14.2
2019-04-16T19:32:01.505Z,13.6
2019-04-16T19:34:10.095Z,12.8
2019-04-16T19:36:11.738Z,14
2019-04-16T19:38:13.179Z,14.1
2019-04-16T19:40:19.497Z,12.7
2019-04-16T19:42:20.894Z,15.8
2019-04-16T19:44:22.275Z,12.6
2019-04-16T19:46:23.719Z,12.7
2019-04-16T19:48:36.173Z,12.5
2019-04-16T19:50:37.755Z,12.7
2019-04-16T19:52:39.204Z,13.5
2019-04-16T19:54:40.574Z,13.2
2019-04-16T19:56:42.009Z,12.2
2019-04-16T19:58:47.008Z,12.5
2019-04-16T20:00:49.398Z,13.2
2019-04-16T20:02:50.933Z,11.3
2019-04-16T20:04:52.378Z,11.9
2019-04-16T20:07:01.201Z,11.9
2019-04-16T20:09:02.783Z,11.1
2019-04-16T20:11:04.193Z,11.4
2019-04-16T20:13:05.539Z,11.1
2019-04-16T20:15:09.827Z,11.4
2019-04-16T20:17:11.218Z,11.3
2019-04-16T20:19:12.650Z,10.9
2019-04-16T20:21:13.989Z,12.7
2019-04-16T20:23:15.424Z,13.5
2019-04-16T20:25:16.765Z,12.4
2019-04-16T20:27:19.847Z,12.6
2019-04-16T20:29:21.251Z,12.1
2019-04-16T20:31:22.632Z,12.6
2019-04-16T20:33:24.070Z,13.1
2019-04-16T20:35:25.505Z,12.7
2019-04-16T20:37:26.847Z,13.3
2019-04-16T20:39:28.183Z,12
2019-04-16T20:41:29.619Z,11.9
2019-04-16T20:43:30.962Z,11.7
2019-04-16T20:45:32.398Z,12.3
2019-04-16T20:47:40.051Z,11.9
2019-04-16T20:49:41.477Z,12.1
2019-04-16T20:51:42.812Z,12.7
2019-04-16T20:53:44.256Z,12.6
2019-04-16T20:55:48.183Z,11.5
2019-04-16T20:57:49.632Z,13.4
2019-04-16T20:59:51.058Z,13.4
2019-04-16T21:01:52.392Z,14.4
2019-04-16T21:03:53.820Z,14.6
2019-04-16T21:05:59.758Z,14.4
2019-04-16T21:08:01.533Z,14.6
2019-04-16T21:10:04.987Z,13.3
2019-04-16T21:12:06.483Z,13.5
2019-04-16T21:14:07.878Z,12.4
2019-04-16T21:16:09.255Z,13.7
2019-04-16T21:18:12.303Z,13.1
2019-04-16T21:20:13.643Z,13.3
2019-04-16T21:22:15.069Z,13.7
2019-04-16T21:24:16.411Z,13.6
2019-04-16T21:26:20.136Z,13.7
2019-04-16T21:28:21.677Z,13.2
2019-04-16T21:30:23.010Z,13.2
2019-04-16T21:32:24.346Z,14.1
2019-04-16T21:34:29.932Z,14.1
2019-04-16T21:36:36.942Z,14.1
2019-04-16T21:38:39.162Z,14
2019-04-16T21:40:40.590Z,13.9
2019-04-16T21:42:41.874Z,14.8
2019-04-16T21:44:45.440Z,13.6
2019-04-16T21:46:52.940Z,15.1
2019-04-16T21:49:00.801Z,14.3
2019-04-16T21:51:02.370Z,14.6
2019-04-16T21:53:03.790Z,14.8
2019-04-16T21:55:05.322Z,13.8
2019-04-16T21:57:13.238Z,15.4
2019-04-16T21:59:14.873Z,14.9
2019-04-16T22:01:16.301Z,15.1
2019-04-16T22:03:17.635Z,14.2
2019-04-16T22:05:19.069Z,15.3
2019-04-16T22:07:25.421Z,14.4
2019-04-16T22:09:26.944Z,15.2
2019-04-16T22:11:28.372Z,15.3
2019-04-16T22:13:29.700Z,15.4
2019-04-16T22:15:30.951Z,15.6
2019-04-16T22:17:36.661Z,14.9
2019-04-16T22:19:54.599Z,15.8
2019-04-16T22:22:01.583Z,15.7
2019-04-16T22:24:02.939Z,15.7
2019-04-16T22:26:04.374Z,15.7
2019-04-16T22:28:12.955Z,15.8
2019-04-16T22:30:20.107Z,16.2
2019-04-16T22:32:21.580Z,14.9
2019-04-16T22:34:23.011Z,15.7
2019-04-16T22:36:24.419Z,16.1
2019-04-16T22:38:25.820Z,16.2
2019-04-16T22:40:27.159Z,16.7
2019-04-16T22:42:30.672Z,16.1
2019-04-16T22:44:32.133Z,15.7
2019-04-16T22:46:33.562Z,16.5
2019-04-16T22:48:34.940Z,17
2019-04-16T22:50:38.839Z,16.8
2019-04-16T22:52:45.953Z,17.2
2019-04-16T22:54:53.001Z,17
2019-04-16T22:57:01.279Z,18.1
2019-04-16T22:59:08.168Z,18.1
2019-04-16T23:01:09.841Z,17.2
2019-04-16T23:03:11.282Z,17
2019-04-16T23:05:12.716Z,16.2
2019-04-16T23:07:14.073Z,16.3
2019-04-16T23:09:17.999Z,16.5
2019-04-16T23:11:24.451Z,17
2019-04-16T23:13:25.886Z,15.9
2019-04-16T23:15:27.305Z,16.3
2019-04-16T23:17:28.742Z,16.6
2019-04-16T23:21:31.627Z,16.1
2019-04-16T23:23:33.037Z,16.5
2019-04-16T23:25:34.373Z,15.8
2019-04-16T23:27:38.197Z,16.4
2019-04-16T23:29:39.645Z,16.5
2019-04-16T23:31:41.070Z,15.9
2019-04-16T23:33:42.498Z,16.4
2019-04-16T23:35:44.748Z,16.2
2019-04-16T23:37:46.150Z,15.1
2019-04-16T23:39:47.496Z,16.6
2019-04-16T23:41:49.070Z,16.6
2019-04-16T23:43:53.481Z,17
2019-04-16T23:45:54.986Z,16.4
2019-04-16T23:47:56.411Z,15.7
2019-04-16T23:49:58.450Z,14.9
2019-04-16T23:52:03.877Z,16.4
2019-04-16T23:54:11.444Z,16.2
2019-04-16T23:56:13.458Z,16.4
2019-04-16T23:58:14.883Z,16.1
